Search for airport 
image banner adimage banner adimage banner ad
image banner ad

79N - Ridge Soaring

Located in Unionville, United States

ICAO - 79N, IATA -

Data provided by Airmate  

General information

Coordinates: N40°53'2" W77°54'26"
Elevation is 815 feet MSL.
Magnetic variation is -10° East
View others Airports in Pennsylvania

Operational data

Special qualification required
Current time UTC:
Current local time:
Weather at : KUNV - University Park ( 6 km )
METAR: KUNV 091353Z 00000KT 10SM BKN075 BKN085 07/01 A3006
TAF: KUNV 091131Z 0912/1012 25006KT P6SM BKN100 FM091500 17005KT 4SM -RA BR OVC025 FM091800 13007G15KT 2SM -RA BR OVC007 FM100300 35008G15KT 2SM -RA BR OVC006 FM100800 33008G15KT P6SM BKN009 OVC012
View NOTAMs / SUP AIP / TFR affecting this airport [VIEW]
Communications frequencies: [VIEW]

Runways:

RWY identifierQFULength (ft)Width (ft)SurfaceLDA (ft)
073322150OTHER
253322150OTHER

Airport contact information

Address: Unionville United States

Other aviation service providers

Flight schools

Knauff And Grove, Inc.

Knauff And Grove, Inc.
tknauff@earthlink.net+1(814)355-2483

Satellite view of 79N